首页
METAR-TAF:

METAR-TAF

机场 :

帕爾馬, 西班牙

马略卡岛帕尔马机场

纬度: 39-33N, 经度: 002-44E, 海拔: 4米

当前天气观测

该预报发布于25分钟前的06:30 UTC
风速8节,风向东转东北
温度 16°C
湿度 68%
气压 1016 hPa
能见度10公里或以上
1500米以下无云,无积雨云

METAR: LEPA 250630Z 06008KT CAVOK 16/10 Q1016 NOSIG

时间: 08:55 (06:55 UTC)

预报

该预报发布于1小时和55分钟前的05:00 UTC
预报有效从25日的 06点(UTC)到 26日的 06点(UTC)
风速10节,风向东北
能见度10公里或以上
少量云层高于2500英尺
短暂存在
从 25日的 10点(UTC)到 25日的 15点(UTC)
风速7节,风向东转东南
成为
从 26日的 04点(UTC)到 26日的 06点(UTC)
风速15节,风向东北

TAF: LEPA 250500Z 2506/2606 05010KT 9999 FEW025 TX27/2512Z TN14/2506Z TEMPO 2510/2515 12007KT BECMG 2604/2606 05015KT

超过4000个机场的气象观测和天气预报(METAR&TAF报告)。

可查询的气象台以黄色和红色小点在地图上表示。

将鼠标移到小点上方,可查看气象台名称。

然后点击查看天气观测和预报。

如需切换地图:点击带黑十字的绿色按钮放大地图;点击带横线的绿色按钮缩小地图;或者点击绿色箭头查看邻近地区的地图。


METAR-TAF: